Time;durP1;ratioP1;P1;durP2;ratioP2;P2;SDS_P1;SDS_P2;PMS_P1;PMS_P2;Temp;Humidity;BMP_temperature;BMP_pressure;BME280_temperature;BME280_humidity;BME280_pressure;Samples;Min_cycle;Max_cycle;Signal;HPM_P1;HPM_P2
2023/01/27 00:01:51;;;;;;;3.20;1.90;;;14.30;43.30;;;;;;5130474;27;45278;-73
2023/01/27 00:04:18;;;;;;;2.05;1.85;;;14.30;43.40;;;;;;5130535;27;45341;-73
2023/01/27 00:06:46;;;;;;;1.77;1.67;;;14.30;43.40;;;;;;5130830;27;45409;-73
2023/01/27 00:09:13;;;;;;;2.72;1.88;;;14.30;43.40;;;;;;5129708;27;46897;-73
2023/01/27 00:14:24;;;;;;;1.92;1.80;;;14.20;43.40;;;;;;5127843;27;45227;-74
2023/01/27 00:16:51;;;;;;;2.50;1.85;;;14.20;43.50;;;;;;5130535;27;45311;-74
2023/01/27 00:19:18;;;;;;;2.28;1.63;;;14.10;43.40;;;;;;5129981;27;45540;-74
2023/01/27 00:24:36;;;;;;;2.85;1.75;;;14.10;43.50;;;;;;5127660;27;45244;-74
2023/01/27 00:27:03;;;;;;;3.20;1.85;;;14.10;43.50;;;;;;5130753;27;45302;-73
2023/01/27 00:29:30;;;;;;;2.22;2.03;;;14.00;43.50;;;;;;5128703;27;46654;-73
2023/01/27 00:34:41;;;;;;;2.35;2.00;;;14.00;43.60;;;;;;5127419;27;45244;-74
2023/01/27 00:37:09;;;;;;;3.15;2.00;;;14.00;43.70;;;;;;5130089;27;45596;-73
2023/01/27 00:39:36;;;;;;;2.47;2.28;;;14.00;43.60;;;;;;5129599;27;46356;-74
2023/01/27 00:42:03;;;;;;;2.25;1.85;;;14.00;43.50;;;;;;5129804;27;45373;-73
2023/01/27 00:44:30;;;;;;;3.53;2.00;;;14.10;43.40;;;;;;5129300;27;45367;-73
2023/01/27 00:46:57;;;;;;;2.22;1.98;;;14.10;43.20;;;;;;5130055;27;45191;-73
2023/01/27 00:49:23;;;;;;;2.40;1.92;;;14.20;43.10;;;;;;5126783;27;45446;-73
2023/01/27 00:51:50;;;;;;;3.15;2.10;;;14.30;43.10;;;;;;5129623;27;45525;-73
2023/01/27 00:54:19;;;;;;;2.13;1.80;;;14.40;43.00;;;;;;5129593;27;45256;-73
2023/01/27 00:56:45;;;;;;;2.15;1.65;;;14.40;42.90;;;;;;5129877;27;45368;-74
2023/01/27 00:59:12;;;;;;;3.03;2.08;;;14.50;42.80;;;;;;5129240;27;47554;-74
2023/01/27 01:01:39;;;;;;;1.95;1.77;;;14.50;42.70;;;;;;5129790;27;45262;-73
2023/01/27 01:04:06;;;;;;;2.25;2.05;;;14.50;42.60;;;;;;5129574;27;45231;-73
2023/01/27 01:06:33;;;;;;;1.98;1.83;;;14.60;42.60;;;;;;5129712;27;45379;-73
2023/01/27 01:08:59;;;;;;;2.10;1.85;;;14.60;42.60;;;;;;5129223;27;45434;-73
2023/01/27 01:11:28;;;;;;;2.92;2.20;;;14.60;42.60;;;;;;5129369;27;45288;-73
2023/01/27 01:13:54;;;;;;;2.95;1.85;;;14.60;42.60;;;;;;5129520;27;45212;-73
2023/01/27 01:16:22;;;;;;;2.55;2.00;;;14.60;42.60;;;;;;5129562;27;45225;-74
2023/01/27 01:18:49;;;;;;;2.75;2.22;;;14.60;42.60;;;;;;5129003;27;45498;-74
2023/01/27 01:21:15;;;;;;;2.45;1.92;;;14.50;43.20;;;;;;5129183;27;45220;-74
2023/01/27 01:23:43;;;;;;;3.10;2.33;;;14.50;42.70;;;;;;5129294;27;45201;-74
2023/01/27 01:26:10;;;;;;;2.35;1.70;;;14.50;42.70;;;;;;5128816;27;45249;-73
2023/01/27 01:28:38;;;;;;;2.22;1.70;;;14.50;42.70;;;;;;5128385;27;45437;-73
2023/01/27 01:31:06;;;;;;;3.78;2.17;;;14.50;42.80;;;;;;5129122;27;45237;-74
2023/01/27 01:33:33;;;;;;;2.65;1.67;;;14.40;42.80;;;;;;5129248;27;45233;-73
2023/01/27 01:36:04;;;;;;;3.22;2.30;;;14.40;42.90;;;;;;5129123;27;45259;-73
2023/01/27 01:38:31;;;;;;;2.65;2.00;;;14.40;42.90;;;;;;5128653;27;45358;-73
2023/01/27 01:40:58;;;;;;;2.33;1.98;;;14.40;42.90;;;;;;5128527;27;45278;-73
2023/01/27 01:43:26;;;;;;;2.72;2.20;;;14.30;42.90;;;;;;5126354;27;45227;-73
2023/01/27 01:45:55;;;;;;;3.13;1.95;;;14.30;43.00;;;;;;5128987;27;45237;-73
2023/01/27 01:48:25;;;;;;;2.67;2.00;;;14.30;43.00;;;;;;5128631;27;46334;-73
2023/01/27 01:50:54;;;;;;;2.83;1.85;;;14.30;43.10;;;;;;5128705;27;45417;-73
2023/01/27 01:53:21;;;;;;;2.85;2.20;;;14.30;43.10;;;;;;5128777;27;45235;-73
2023/01/27 01:55:48;;;;;;;3.38;2.30;;;14.20;43.10;;;;;;5129083;27;45154;-73
2023/01/27 01:58:15;;;;;;;2.55;1.90;;;14.20;43.10;;;;;;5128683;27;47326;-73
2023/01/27 02:00:42;;;;;;;2.60;1.98;;;14.20;43.20;;;;;;5128573;27;45247;-74
2023/01/27 02:03:10;;;;;;;2.78;2.30;;;14.10;43.20;;;;;;5128979;27;45295;-73
2023/01/27 02:05:39;;;;;;;2.63;2.08;;;14.10;43.20;;;;;;5128771;27;45432;-73
2023/01/27 02:08:09;;;;;;;3.17;2.20;;;14.10;43.20;;;;;;5128453;27;45451;-73
2023/01/27 02:10:36;;;;;;;2.33;2.13;;;14.10;43.20;;;;;;5128406;27;45249;-74
2023/01/27 02:13:03;;;;;;;2.60;2.03;;;14.10;43.20;;;;;;5128538;27;45276;-74
2023/01/27 02:15:30;;;;;;;2.53;2.00;;;14.00;43.30;;;;;;5128070;27;45180;-73
2023/01/27 02:17:57;;;;;;;3.03;2.15;;;14.00;43.30;;;;;;5128102;27;45473;-74
2023/01/27 02:20:28;;;;;;;2.80;1.92;;;14.00;43.30;;;;;;5128144;27;45314;-74
2023/01/27 02:22:58;;;;;;;3.10;2.22;;;14.00;43.40;;;;;;5128344;27;45393;-74
2023/01/27 02:25:28;;;;;;;3.03;2.05;;;14.00;43.40;;;;;;5128436;27;45391;-74
2023/01/27 02:27:56;;;;;;;2.47;1.92;;;13.90;43.40;;;;;;5128001;27;46394;-73
2023/01/27 02:30:23;;;;;;;3.40;2.10;;;13.90;43.50;;;;;;5127945;27;45294;-74
2023/01/27 02:32:49;;;;;;;3.30;2.30;;;13.90;43.50;;;;;;5128287;27;45319;-74
2023/01/27 02:35:19;;;;;;;2.88;2.17;;;13.90;43.50;;;;;;5128268;27;45435;-73
2023/01/27 02:37:46;;;;;;;2.87;2.27;;;14.00;43.40;;;;;;5127861;27;45221;-73
2023/01/27 02:40:13;;;;;;;3.20;2.28;;;14.00;43.20;;;;;;5127741;27;45312;-74
2023/01/27 02:42:40;;;;;;;2.33;1.90;;;14.20;43.10;;;;;;5128153;27;45374;-74
2023/01/27 02:45:09;;;;;;;2.60;2.28;;;14.20;42.90;;;;;;5128176;27;45299;-74
2023/01/27 02:47:36;;;;;;;3.53;2.08;;;14.30;42.80;;;;;;5127699;27;47286;-73
2023/01/27 02:50:03;;;;;;;4.07;2.20;;;14.30;42.70;;;;;;5127541;27;45303;-74
2023/01/27 02:52:29;;;;;;;2.65;2.08;;;14.40;42.60;;;;;;5130519;27;45303;-73
2023/01/27 02:54:56;;;;;;;2.72;1.98;;;14.40;42.50;;;;;;5131922;27;45373;-73
2023/01/27 02:57:24;;;;;;;2.33;2.13;;;14.50;42.40;;;;;;5131435;27;47294;-74
2023/01/27 02:59:51;;;;;;;2.38;2.10;;;14.50;42.40;;;;;;5131110;27;45307;-73
2023/01/27 03:02:21;;;;;;;2.92;1.92;;;14.60;42.30;;;;;;5130868;27;45334;-73
2023/01/27 03:04:48;;;;;;;4.25;2.28;;;14.60;42.30;;;;;;5131666;27;45195;-74
2023/01/27 03:07:15;;;;;;;2.15;1.77;;;14.60;42.30;;;;;;5131471;27;46375;-74
2023/01/27 03:09:42;;;;;;;2.67;2.00;;;14.50;42.30;;;;;;5131116;27;45252;-74
2023/01/27 03:12:21;;;;;;;2.92;2.10;;;14.50;42.40;;;;;;5131381;27;45299;-73
2023/01/27 03:20:18;;;;;;;2.25;2.05;;;14.50;42.60;;;;;;5128514;27;45305;-74
2023/01/27 03:22:44;;;;;;;2.75;1.98;;;14.50;42.60;;;;;;5130912;27;45184;-74
2023/01/27 03:25:11;;;;;;;1.98;1.77;;;14.40;42.60;;;;;;5131153;27;45210;-74
2023/01/27 03:27:38;;;;;;;3.13;2.30;;;14.40;42.70;;;;;;5130715;27;45521;-74
2023/01/27 03:30:06;;;;;;;3.08;2.13;;;14.40;42.70;;;;;;5130692;27;45401;-74
2023/01/27 03:32:35;;;;;;;2.90;1.92;;;14.40;42.80;;;;;;5131004;27;45288;-74
2023/01/27 03:35:02;;;;;;;2.70;2.10;;;14.30;42.70;;;;;;5131350;27;45125;-74
2023/01/27 03:48:30;;;;;;;2.55;2.20;;;14.20;43.00;;;;;;5131031;27;45745;-73
2023/01/27 03:50:57;;;;;;;2.13;1.92;;;14.20;43.00;;;;;;5130554;27;45294;-71
2023/01/27 03:53:24;;;;;;;2.15;1.95;;;14.20;43.10;;;;;;5130632;27;45227;-72
2023/01/27 03:55:51;;;;;;;3.30;2.03;;;14.20;43.10;;;;;;5131090;27;45197;-73
2023/01/27 03:58:19;;;;;;;2.03;1.83;;;14.10;43.00;;;;;;5130538;27;45480;-74
2023/01/27 04:00:47;;;;;;;3.28;2.00;;;14.10;43.10;;;;;;5130660;27;45236;-73
2023/01/27 04:08:47;;;;;;;2.63;1.88;;;14.00;43.10;;;;;;5127782;27;45211;-75
2023/01/27 04:14:00;;;;;;;3.00;2.03;;;14.00;43.20;;;;;;5127628;27;45321;-75
2023/01/27 04:16:29;;;;;;;2.22;1.98;;;14.00;43.30;;;;;;5130153;27;45329;-74
2023/01/27 04:18:55;;;;;;;2.65;2.22;;;13.90;43.30;;;;;;5129964;27;45299;-74
2023/01/27 04:21:24;;;;;;;3.95;2.20;;;13.90;43.30;;;;;;5130232;27;45182;-74
2023/01/27 04:23:51;;;;;;;3.92;2.33;;;13.90;43.40;;;;;;5130259;27;45216;-74
2023/01/27 04:26:18;;;;;;;3.10;2.20;;;13.90;43.40;;;;;;5130314;27;45322;-74
2023/01/27 04:28:45;;;;;;;2.83;2.10;;;13.90;43.40;;;;;;5129815;27;45473;-74
2023/01/27 04:31:12;;;;;;;2.88;1.92;;;14.00;43.30;;;;;;5130056;27;45239;-74
2023/01/27 04:33:39;;;;;;;2.58;1.92;;;14.10;43.50;;;;;;5130136;27;45271;-74
2023/01/27 04:36:06;;;;;;;3.35;2.05;;;14.10;42.90;;;;;;5129978;27;45497;-75
2023/01/27 04:38:35;;;;;;;2.75;2.03;;;14.20;42.90;;;;;;5129066;27;47313;-74
2023/01/27 04:41:01;;;;;;;3.50;2.20;;;14.20;42.80;;;;;;5129905;27;45240;-74
2023/01/27 04:43:28;;;;;;;2.92;2.10;;;14.30;42.70;;;;;;5127097;27;45285;-74
2023/01/27 04:45:55;;;;;;;3.20;2.17;;;14.30;42.60;;;;;;5130105;27;45395;-74
2023/01/27 04:48:22;;;;;;;2.70;2.13;;;14.30;42.50;;;;;;5131417;27;45298;-74
2023/01/27 04:50:49;;;;;;;2.10;1.90;;;14.40;42.50;;;;;;5129965;27;45201;-74
2023/01/27 04:53:16;;;;;;;2.75;2.15;;;14.40;42.50;;;;;;5129756;27;45261;-74
2023/01/27 04:55:45;;;;;;;3.83;2.33;;;14.40;42.50;;;;;;5129969;27;45415;-74
2023/01/27 04:58:12;;;;;;;2.90;2.05;;;14.40;42.50;;;;;;5129376;27;45601;-74
2023/01/27 05:00:39;;;;;;;2.67;2.20;;;14.40;42.60;;;;;;5129516;27;45300;-74
2023/01/27 05:03:08;;;;;;;2.00;1.77;;;14.40;42.60;;;;;;5129659;27;45200;-74
2023/01/27 05:05:35;;;;;;;3.40;2.13;;;14.40;42.60;;;;;;5129828;27;45287;-74
2023/01/27 05:08:03;;;;;;;3.65;2.35;;;14.30;42.60;;;;;;5129259;27;46793;-74
2023/01/27 05:10:29;;;;;;;2.63;2.03;;;14.30;42.70;;;;;;5129565;27;45316;-74
2023/01/27 05:12:58;;;;;;;2.80;2.22;;;14.30;42.80;;;;;;5130531;27;45219;-74
2023/01/27 05:15:25;;;;;;;4.55;2.38;;;14.30;42.80;;;;;;5129788;27;45001;-74
2023/01/27 05:17:52;;;;;;;2.97;2.05;;;14.30;42.80;;;;;;5128974;27;46737;-74
2023/01/27 05:20:19;;;;;;;3.67;2.17;;;14.20;42.80;;;;;;5128752;27;45316;-73
2023/01/27 05:22:46;;;;;;;2.97;2.17;;;14.20;42.80;;;;;;5129042;27;45336;-74
2023/01/27 05:25:12;;;;;;;2.90;1.83;;;14.20;42.90;;;;;;5129167;27;45308;-74
2023/01/27 05:27:39;;;;;;;2.10;1.70;;;14.20;42.90;;;;;;5129114;27;46358;-75
2023/01/27 05:30:11;;;;;;;2.37;1.87;;;14.20;42.90;;;;;;5129453;27;45231;-74
2023/01/27 05:32:38;;;;;;;3.78;2.00;;;14.10;42.90;;;;;;5129181;27;45210;-75
2023/01/27 05:35:06;;;;;;;2.60;2.00;;;14.10;43.00;;;;;;5128981;27;45400;-75
2023/01/27 05:37:33;;;;;;;3.35;2.13;;;14.10;43.00;;;;;;5128723;27;45350;-75
2023/01/27 05:40:00;;;;;;;3.92;2.25;;;14.10;43.10;;;;;;5128595;27;45243;-74
2023/01/27 05:42:27;;;;;;;3.03;2.03;;;14.00;43.10;;;;;;5128843;27;45251;-74
2023/01/27 05:44:53;;;;;;;2.20;1.77;;;14.00;43.10;;;;;;5129439;27;45277;-75
2023/01/27 05:47:22;;;;;;;3.90;2.13;;;14.00;43.10;;;;;;5128669;27;45290;-74
2023/01/27 05:49:48;;;;;;;3.78;2.33;;;14.00;43.20;;;;;;5128452;27;45330;-74
2023/01/27 05:52:15;;;;;;;2.50;2.17;;;13.90;43.20;;;;;;5128955;27;45207;-74
2023/01/27 05:54:42;;;;;;;3.30;2.60;;;14.00;43.20;;;;;;5128745;27;45185;-74
2023/01/27 05:57:09;;;;;;;2.80;1.90;;;13.90;43.20;;;;;;5128479;27;46684;-74
2023/01/27 05:59:36;;;;;;;2.13;1.83;;;13.90;43.30;;;;;;5128430;27;45303;-74
2023/01/27 06:02:02;;;;;;;3.33;2.30;;;13.90;43.30;;;;;;5128566;27;45382;-74
2023/01/27 06:04:31;;;;;;;2.27;1.97;;;13.90;43.30;;;;;;5128368;27;45323;-74
2023/01/27 06:06:57;;;;;;;2.53;2.20;;;13.90;43.30;;;;;;5127915;27;45549;-74
2023/01/27 06:09:24;;;;;;;2.77;2.20;;;13.90;43.30;;;;;;5127783;27;45369;-74
2023/01/27 06:11:51;;;;;;;3.30;2.55;;;13.90;43.20;;;;;;5128463;27;45231;-75
2023/01/27 06:14:18;;;;;;;2.47;2.00;;;14.00;43.10;;;;;;5128511;27;45463;-74
2023/01/27 06:16:46;;;;;;;3.40;2.00;;;14.10;42.90;;;;;;5128055;27;46627;-74
2023/01/27 06:19:13;;;;;;;2.87;2.20;;;14.10;42.80;;;;;;5127877;27;45253;-74
2023/01/27 06:21:41;;;;;;;3.33;2.10;;;14.20;42.80;;;;;;5128431;27;45138;-75
2023/01/27 06:24:08;;;;;;;3.07;2.03;;;14.20;42.70;;;;;;5128422;27;45382;-75
2023/01/27 06:26:35;;;;;;;3.42;2.28;;;14.30;42.60;;;;;;5126776;27;45252;-74
2023/01/27 06:29:02;;;;;;;3.13;2.10;;;14.30;42.60;;;;;;5127892;27;45135;-74
2023/01/27 06:31:28;;;;;;;2.88;2.03;;;14.30;42.50;;;;;;5128064;27;45188;-75
2023/01/27 06:33:55;;;;;;;3.13;2.00;;;14.30;42.50;;;;;;5128157;27;45287;-74
2023/01/27 06:36:22;;;;;;;4.03;1.95;;;14.30;42.50;;;;;;5127607;27;45663;-74
2023/01/27 06:38:51;;;;;;;2.97;2.28;;;14.30;42.50;;;;;;5127632;27;45378;-75
2023/01/27 06:41:18;;;;;;;2.50;2.00;;;14.30;42.50;;;;;;5127929;27;45255;-74
2023/01/27 06:43:44;;;;;;;2.47;1.90;;;14.30;42.50;;;;;;5128488;27;45179;-74
2023/01/27 06:46:11;;;;;;;3.38;2.10;;;14.30;42.50;;;;;;5128069;27;46410;-74
2023/01/27 06:48:38;;;;;;;2.53;1.90;;;14.30;42.60;;;;;;5127165;27;45283;-74
2023/01/27 06:51:05;;;;;;;3.15;2.40;;;14.30;42.60;;;;;;5127941;27;45366;-74
2023/01/27 06:53:33;;;;;;;2.93;2.10;;;14.30;42.70;;;;;;5128302;27;45291;-74
2023/01/27 06:56:01;;;;;;;2.53;2.33;;;14.30;42.70;;;;;;5127973;27;45301;-75
2023/01/27 06:58:28;;;;;;;2.85;2.25;;;14.20;42.70;;;;;;5127791;27;45322;-75
2023/01/27 07:00:55;;;;;;;2.83;2.25;;;14.20;42.70;;;;;;5128132;27;45236;-75
2023/01/27 07:03:22;;;;;;;2.70;2.17;;;14.20;42.80;;;;;;5128044;27;45525;-74
2023/01/27 07:05:49;;;;;;;2.77;1.90;;;14.20;42.80;;;;;;5127820;27;46388;-74
2023/01/27 07:08:16;;;;;;;3.13;2.00;;;14.20;42.90;;;;;;5127768;27;45355;-74
2023/01/27 07:10:43;;;;;;;3.00;2.05;;;14.10;42.90;;;;;;5128041;27;45342;-74
2023/01/27 07:13:12;;;;;;;2.70;2.03;;;14.10;42.90;;;;;;5128115;27;45472;-74
2023/01/27 07:15:39;;;;;;;2.58;2.08;;;14.10;43.00;;;;;;5127820;27;45331;-74
2023/01/27 07:18:06;;;;;;;3.05;1.90;;;14.10;43.00;;;;;;5127644;27;45298;-74
2023/01/27 07:20:33;;;;;;;4.30;2.30;;;14.10;43.00;;;;;;5127719;27;45439;-74
2023/01/27 07:23:00;;;;;;;2.70;2.23;;;14.00;43.10;;;;;;5128213;27;45189;-74
2023/01/27 07:25:27;;;;;;;2.53;2.05;;;14.00;43.10;;;;;;5127605;27;46593;-74
2023/01/27 07:27:54;;;;;;;2.63;2.15;;;14.00;43.20;;;;;;5127631;27;45188;-74
2023/01/27 07:30:22;;;;;;;2.50;2.10;;;14.00;43.20;;;;;;5127143;27;45326;-72
2023/01/27 07:32:49;;;;;;;2.38;2.13;;;14.00;43.20;;;;;;5127197;27;45372;-74
2023/01/27 07:35:16;;;;;;;2.47;2.03;;;14.00;43.20;;;;;;5127585;27;47849;-74
2023/01/27 07:37:43;;;;;;;3.50;2.20;;;13.90;43.20;;;;;;5128841;27;45258;-74
2023/01/27 07:40:12;;;;;;;2.55;2.15;;;13.90;43.20;;;;;;5130956;27;45360;-74
2023/01/27 07:42:39;;;;;;;2.92;2.05;;;13.90;43.30;;;;;;5131287;27;45474;-74
2023/01/27 07:45:07;;;;;;;3.10;2.20;;;13.90;43.30;;;;;;5130214;27;45391;-74
2023/01/27 07:47:35;;;;;;;2.92;2.22;;;13.90;43.30;;;;;;5130767;27;45267;-74
2023/01/27 07:50:02;;;;;;;4.30;2.23;;;13.90;43.30;;;;;;5130914;27;45320;-74
2023/01/27 07:52:29;;;;;;;3.17;2.38;;;13.90;43.20;;;;;;5130973;27;45350;-73
2023/01/27 07:54:55;;;;;;;2.25;1.92;;;14.00;43.10;;;;;;5130626;27;47320;-74
2023/01/27 07:57:22;;;;;;;2.87;2.00;;;14.10;42.90;;;;;;5130569;27;45212;-74
2023/01/27 07:59:52;;;;;;;3.95;2.20;;;14.10;42.80;;;;;;5130384;27;45210;-74
2023/01/27 08:02:19;;;;;;;3.17;2.10;;;14.20;42.80;;;;;;5130962;27;45283;-74
2023/01/27 08:04:49;;;;;;;4.53;2.27;;;14.20;42.70;;;;;;5132131;27;46821;-75
2023/01/27 08:07:16;;;;;;;3.08;1.95;;;14.30;42.70;;;;;;5117975;27;45294;-72
2023/01/27 08:09:43;;;;;;;2.10;1.75;;;14.30;42.60;;;;;;5124737;27;45394;-72
2023/01/27 08:12:10;;;;;;;3.03;2.05;;;14.40;42.60;;;;;;5109913;27;45306;-75
2023/01/27 08:14:36;;;;;;;2.42;1.90;;;14.40;42.60;;;;;;5127002;27;46742;-72
2023/01/27 08:17:03;;;;;;;2.53;2.00;;;14.40;42.50;;;;;;5121095;27;45418;-74
2023/01/27 08:19:30;;;;;;;4.80;2.15;;;14.40;42.50;;;;;;5114284;27;45370;-72
2023/01/27 08:21:58;;;;;;;2.42;1.73;;;14.40;42.60;;;;;;5112340;27;46839;-72
2023/01/27 08:24:25;;;;;;;2.95;1.67;;;14.40;42.60;;;;;;5120761;27;47338;-72
2023/01/27 08:26:52;;;;;;;2.35;1.90;;;14.40;42.60;;;;;;5120124;27;45256;-73
2023/01/27 08:29:19;;;;;;;2.43;1.80;;;14.40;42.70;;;;;;5125024;27;45396;-74
2023/01/27 08:31:45;;;;;;;3.37;2.20;;;14.30;42.70;;;;;;5109979;27;45325;-73
2023/01/27 08:34:12;;;;;;;2.22;1.98;;;14.40;42.80;;;;;;5109334;27;46388;-73
2023/01/27 08:36:41;;;;;;;3.53;2.15;;;14.30;42.70;;;;;;5109995;27;45313;-73
2023/01/27 08:39:09;;;;;;;2.70;1.80;;;14.30;42.80;;;;;;5127820;27;45596;-73
2023/01/27 08:41:36;;;;;;;3.20;2.10;;;14.30;42.80;;;;;;5130291;27;45308;-73
2023/01/27 08:44:02;;;;;;;2.45;2.25;;;14.30;42.90;;;;;;5124496;27;46388;-73
2023/01/27 08:46:29;;;;;;;3.08;2.35;;;14.20;42.90;;;;;;5125215;27;45437;-73
2023/01/27 08:48:57;;;;;;;2.22;2.03;;;14.20;42.90;;;;;;5126637;27;45496;-73
2023/01/27 08:51:24;;;;;;;2.43;2.00;;;14.20;43.50;;;;;;5129796;27;45391;-74
2023/01/27 08:53:51;;;;;;;2.88;2.28;;;14.20;43.50;;;;;;5129409;27;46425;-74
2023/01/27 08:56:19;;;;;;;2.43;2.00;;;14.20;43.00;;;;;;5129751;27;45309;-74
2023/01/27 08:58:47;;;;;;;2.42;1.80;;;14.20;43.00;;;;;;5128964;27;45189;-73
2023/01/27 09:01:14;;;;;;;2.45;2.22;;;14.10;43.00;;;;;;5127914;27;45237;-73
2023/01/27 09:03:41;;;;;;;2.53;2.20;;;14.10;43.00;;;;;;5129168;27;45569;-74
2023/01/27 09:06:08;;;;;;;2.60;2.23;;;14.10;43.00;;;;;;5129308;27;45402;-73
2023/01/27 09:08:35;;;;;;;3.30;2.50;;;14.10;43.10;;;;;;5121602;27;45516;-72
2023/01/27 09:11:08;;;;;;;6.75;3.00;;;14.00;43.30;;;;;;5120076;27;45267;-69
2023/01/27 09:13:36;;;;;;;3.70;2.33;;;14.00;43.90;;;;;;5119654;27;45391;-71
2023/01/27 09:16:03;;;;;;;5.15;3.03;;;14.00;44.00;;;;;;5127508;27;45431;-71
2023/01/27 09:18:30;;;;;;;4.32;2.70;;;14.00;44.00;;;;;;5127635;27;45187;-72
2023/01/27 09:20:57;;;;;;;4.05;2.63;;;14.00;44.30;;;;;;5127804;27;45341;-71
2023/01/27 09:23:24;;;;;;;3.83;2.60;;;14.00;44.10;;;;;;5127459;27;46395;-72
2023/01/27 09:25:51;;;;;;;4.32;3.03;;;14.00;44.40;;;;;;5126431;27;45386;-72
2023/01/27 09:28:17;;;;;;;3.20;2.78;;;14.00;44.50;;;;;;5121056;27;45342;-71
2023/01/27 09:30:46;;;;;;;4.57;2.97;;;14.00;44.20;;;;;;5120711;27;45465;-71
2023/01/27 09:33:13;;;;;;;6.20;3.22;;;14.00;44.00;;;;;;5125306;27;46447;-72
2023/01/27 09:35:41;;;;;;;5.60;2.70;;;14.00;44.00;;;;;;5127359;27;45393;-69
2023/01/27 09:38:08;;;;;;;4.25;2.78;;;14.00;44.00;;;;;;5119720;27;45402;-73
2023/01/27 09:40:45;;;;;;;5.13;3.22;;;14.00;44.00;;;;;;5127653;27;45323;-71
2023/01/27 09:43:33;;;;;;;3.65;2.70;;;14.00;44.00;;;;;;5127086;27;45509;-73
2023/01/27 09:46:13;;;;;;;4.15;2.53;;;14.00;44.10;;;;;;5107243;27;45425;-73
2023/01/27 09:48:46;;;;;;;5.70;2.58;;;14.00;44.20;;;;;;5122135;27;45383;-73
2023/01/27 09:51:15;;;;;;;5.75;2.63;;;14.00;44.20;;;;;;5130180;27;45628;-73
2023/01/27 09:54:02;;;;;;;7.32;2.65;;;14.00;44.80;;;;;;5125782;27;45495;-72
2023/01/27 09:56:37;;;;;;;5.07;2.67;;;14.00;44.80;;;;;;5128563;27;45446;-71
2023/01/27 09:59:12;;;;;;;4.82;2.58;;;14.10;44.90;;;;;;5129953;27;45339;-72
2023/01/27 10:01:46;;;;;;;4.40;2.60;;;14.10;44.90;;;;;;5130394;27;45528;-72
2023/01/27 10:04:24;;;;;;;4.75;2.90;;;14.20;45.10;;;;;;5137915;27;46470;-70
2023/01/27 10:06:57;;;;;;;5.13;2.67;;;14.20;44.70;;;;;;5128804;27;45288;-71
2023/01/27 10:09:37;;;;;;;5.47;2.78;;;14.30;44.70;;;;;;5129464;27;45439;-71
2023/01/27 10:12:10;;;;;;;16.77;2.45;;;14.40;44.60;;;;;;5124257;27;45317;-74
2023/01/27 10:14:39;;;;;;;5.47;2.70;;;14.70;44.70;;;;;;5129496;27;47535;-72
2023/01/27 10:17:15;;;;;;;4.60;2.38;;;15.10;43.50;;;;;;5129217;27;45417;-71
2023/01/27 10:19:50;;;;;;;5.65;3.70;;;15.50;41.90;;;;;;5126237;27;45253;-71
2023/01/27 10:22:19;;;;;;;7.40;3.33;;;15.80;41.10;;;;;;5127934;27;45398;-71
2023/01/27 10:24:56;;;;;;;5.03;2.60;;;16.10;40.90;;;;;;5128595;27;45382;-71
2023/01/27 10:27:23;;;;;;;6.03;2.92;;;16.40;40.50;;;;;;5124538;27;45261;-73
2023/01/27 10:29:51;;;;;;;5.55;2.88;;;16.60;39.70;;;;;;5119471;27;45256;-70
2023/01/27 10:32:25;;;;;;;5.13;2.70;;;16.80;39.70;;;;;;5130926;27;45317;-71
2023/01/27 10:34:57;;;;;;;4.15;2.75;;;17.00;39.20;;;;;;5126451;27;45332;-71
2023/01/27 10:37:27;;;;;;;7.38;2.90;;;17.10;38.70;;;;;;5127332;27;45356;-72
2023/01/27 10:39:56;;;;;;;3.45;2.28;;;17.10;38.90;;;;;;5130224;27;45467;-71
2023/01/27 10:42:27;;;;;;;3.92;2.30;;;17.20;38.50;;;;;;5131970;27;45304;-70
2023/01/27 10:45:03;;;;;;;3.97;3.08;;;17.20;38.30;;;;;;5129134;27;45365;-71
2023/01/27 10:47:39;;;;;;;4.10;2.55;;;17.20;38.40;;;;;;5121086;27;45249;-73
2023/01/27 10:50:07;;;;;;;5.45;2.35;;;17.20;38.40;;;;;;5117996;27;45276;-73
2023/01/27 10:52:37;;;;;;;5.63;2.47;;;17.20;38.50;;;;;;5126981;27;45387;-69
2023/01/27 10:55:05;;;;;;;4.55;3.00;;;17.20;38.40;;;;;;5121541;27;45469;-72
2023/01/27 10:57:35;;;;;;;3.33;2.60;;;17.20;38.50;;;;;;5118340;27;45501;-71
2023/01/27 11:00:05;;;;;;;8.43;3.17;;;17.20;39.20;;;;;;5128650;27;45199;-71
2023/01/27 11:02:36;;;;;;;3.53;2.50;;;17.30;38.60;;;;;;5114932;27;46293;-70
2023/01/27 11:05:05;;;;;;;7.60;2.58;;;17.30;38.50;;;;;;5124973;27;46465;-70
2023/01/27 11:07:32;;;;;;;3.95;2.65;;;17.20;38.60;;;;;;5114478;27;45409;-70
2023/01/27 11:10:00;;;;;;;5.30;2.70;;;17.20;38.80;;;;;;5122782;27;45138;-72
2023/01/27 11:12:30;;;;;;;5.25;2.42;;;17.20;38.70;;;;;;5121335;27;45176;-71
2023/01/27 11:14:58;;;;;;;5.78;2.60;;;17.20;38.90;;;;;;5131834;27;46597;-70
2023/01/27 11:17:28;;;;;;;3.50;2.38;;;17.20;38.60;;;;;;5121914;27;45475;-70
2023/01/27 11:20:00;;;;;;;4.03;2.72;;;17.20;38.90;;;;;;5124033;27;45480;-70
2023/01/27 11:22:28;;;;;;;5.93;2.45;;;17.20;38.80;;;;;;5131996;27;45184;-69
2023/01/27 11:24:59;;;;;;;2.70;2.35;;;17.20;38.90;;;;;;5132315;27;45282;-70
2023/01/27 11:27:33;;;;;;;5.20;2.63;;;17.20;38.70;;;;;;5128610;27;45274;-70
2023/01/27 11:30:01;;;;;;;4.60;2.83;;;17.20;38.90;;;;;;5131940;27;45336;-71
2023/01/27 11:32:34;;;;;;;3.47;2.42;;;17.20;39.50;;;;;;5130535;27;45398;-70
2023/01/27 11:35:04;;;;;;;8.88;2.42;;;17.10;38.90;;;;;;5121801;27;46921;-70
2023/01/27 11:37:32;;;;;;;6.85;2.65;;;17.10;39.00;;;;;;5124909;27;45403;-71
2023/01/27 11:39:59;;;;;;;4.63;2.22;;;17.10;39.00;;;;;;5128759;27;45225;-71
2023/01/27 11:42:26;;;;;;;4.03;2.60;;;17.10;39.00;;;;;;5126147;27;45186;-70
2023/01/27 11:44:54;;;;;;;3.58;2.35;;;17.00;39.80;;;;;;5128930;27;46663;-70
2023/01/27 11:47:23;;;;;;;4.95;2.70;;;17.00;39.30;;;;;;5124005;27;45394;-71
2023/01/27 11:49:51;;;;;;;3.30;2.60;;;16.90;39.30;;;;;;5132190;27;45492;-70
2023/01/27 11:52:19;;;;;;;3.70;2.42;;;16.90;39.40;;;;;;5133223;27;45231;-72
2023/01/27 11:54:48;;;;;;;7.15;2.63;;;16.80;39.50;;;;;;5131959;27;46746;-74
2023/01/27 11:57:18;;;;;;;4.55;2.90;;;16.80;39.70;;;;;;5128553;27;45168;-73
2023/01/27 11:59:44;;;;;;;8.00;2.30;;;16.70;39.60;;;;;;5128454;27;45524;-71
2023/01/27 12:02:18;;;;;;;4.70;2.60;;;16.70;39.70;;;;;;5135885;27;45259;-73
2023/01/27 12:04:50;;;;;;;7.18;2.50;;;16.70;39.70;;;;;;5132929;27;46344;-72
2023/01/27 12:07:22;;;;;;;5.47;2.30;;;16.70;39.70;;;;;;5132968;27;45407;-72
2023/01/27 12:09:48;;;;;;;2.60;2.40;;;16.70;40.30;;;;;;5128551;27;45423;-72
2023/01/27 12:12:23;;;;;;;6.78;2.42;;;16.70;39.80;;;;;;5131734;27;45464;-71
2023/01/27 12:14:51;;;;;;;3.97;2.28;;;16.60;39.90;;;;;;5128620;27;46387;-71
2023/01/27 12:17:22;;;;;;;8.07;2.70;;;16.50;39.80;;;;;;5126355;27;45386;-72
2023/01/27 12:19:49;;;;;;;7.60;2.40;;;16.50;40.70;;;;;;5132073;27;45454;-71
2023/01/27 12:22:20;;;;;;;7.78;2.40;;;16.50;40.10;;;;;;5131821;27;45316;-71
2023/01/27 12:24:49;;;;;;;3.15;2.33;;;16.40;40.10;;;;;;5128594;27;46408;-73
2023/01/27 12:27:20;;;;;;;2.83;2.30;;;16.40;40.30;;;;;;5130122;27;45430;-70
2023/01/27 12:29:48;;;;;;;4.13;2.50;;;16.40;40.40;;;;;;5118086;27;45396;-71
2023/01/27 12:32:17;;;;;;;5.03;2.35;;;16.50;40.40;;;;;;5126475;27;45256;-72
2023/01/27 12:34:45;;;;;;;4.78;2.50;;;16.50;40.10;;;;;;5131118;27;46836;-72
2023/01/27 12:37:21;;;;;;;4.22;2.13;;;16.60;40.00;;;;;;5127991;27;45462;-73
2023/01/27 12:39:51;;;;;;;2.67;2.00;;;16.70;39.80;;;;;;5131649;27;45315;-72
2023/01/27 12:42:38;;;;;;;3.50;2.60;;;16.90;39.80;;;;;;5131014;27;45391;-69
2023/01/27 12:45:20;;;;;;;3.92;2.10;;;17.10;39.50;;;;;;5128639;27;46368;-69
2023/01/27 12:47:58;;;;;;;2.60;2.08;;;17.20;39.20;;;;;;5125736;27;45189;-70
2023/01/27 12:50:25;;;;;;;4.80;2.00;;;17.30;38.90;;;;;;5118716;27;45301;-73
2023/01/27 12:52:55;;;;;;;5.13;2.42;;;17.40;39.00;;;;;;5129830;27;45402;-70
2023/01/27 12:55:28;;;;;;;5.20;2.13;;;17.40;38.70;;;;;;5132989;27;46362;-69
2023/01/27 12:57:55;;;;;;;3.00;2.22;;;17.40;38.80;;;;;;5134375;27;46095;-71
2023/01/27 13:00:22;;;;;;;4.43;2.33;;;17.40;38.80;;;;;;5131251;27;45226;-70
2023/01/27 13:02:49;;;;;;;4.13;2.50;;;17.40;39.00;;;;;;5128305;27;45389;-72
2023/01/27 13:05:16;;;;;;;4.07;2.58;;;17.40;39.00;;;;;;5128903;27;46627;-71
2023/01/27 13:07:44;;;;;;;2.72;2.10;;;17.30;39.00;;;;;;5127595;27;45417;-71
2023/01/27 13:10:19;;;;;;;2.28;2.08;;;17.30;39.00;;;;;;5127104;27;45416;-69
2023/01/27 13:12:50;;;;;;;3.42;2.08;;;17.30;39.20;;;;;;5127464;27;45448;-69
2023/01/27 13:15:17;;;;;;;2.55;2.10;;;17.20;39.30;;;;;;5124031;27;46395;-69
2023/01/27 13:17:46;;;;;;;3.88;2.22;;;17.20;39.30;;;;;;5126241;27;46303;-71
2023/01/27 13:20:17;;;;;;;5.32;2.50;;;17.20;40.30;;;;;;5124409;27;45337;-75
2023/01/27 13:22:45;;;;;;;3.25;2.10;;;17.20;39.40;;;;;;5118050;27;45427;-73
2023/01/27 13:25:18;;;;;;;2.30;2.10;;;17.30;39.40;;;;;;5134028;27;45272;-76
2023/01/27 13:27:44;;;;;;;3.13;2.35;;;17.20;39.30;;;;;;5122510;27;45366;-66